Terminal Aerodrome Forecast
Issued by NWS Jacksonville, FL

Home | Current Version | Previous Version | Text Only | Print | Product List | Glossary On
Versions: 1 2 3 4 5 6 7 8 9 10 11 12 13 14 15 16 17 18 19
000
FTUS42 KJAX 270520
TAFSSI
TAF
KSSI 270520Z 2706/2806 14004KT P6SM VCSH BKN020 BKN040
     FM271200 14006KT P6SM BKN015 BKN030
     FM271600 11010KT P6SM SCT025 SCT250=

USA.gov is the U.S. government's official web portal to all federal, state and local government web resources and services.